Time;durP1;ratioP1;P1;durP2;ratioP2;P2;SDS_P1;SDS_P2;PMS_P1;PMS_P2;Temp;Humidity;BMP_temperature;BMP_pressure;BME280_temperature;BME280_humidity;BME280_pressure;Samples;Min_cycle;Max_cycle;Signal;HPM_P1;HPM_P2
2022/09/09 00:01:59;;;;;;;4.10;3.35;;;;;;;;;;5025001;28;20071;-60
2022/09/09 00:04:28;;;;;;;3.75;3.30;;;;;;;;;;5029355;28;20030;-60
2022/09/09 00:07:13;;;;;;;8.40;4.53;;;;;;;;;;5028868;28;20034;-60
2022/09/09 00:09:46;;;;;;;5.10;3.65;;;;;;;;;;5018024;28;20068;-60
2022/09/09 00:12:15;;;;;;;9.40;4.28;;;;;;;;;;5026311;28;20087;-60
2022/09/09 00:14:53;;;;;;;6.05;3.95;;;;;;;;;;5028390;28;20037;-60
2022/09/09 00:17:23;;;;;;;4.97;4.03;;;;;;;;;;5029604;28;20029;-60
2022/09/09 00:19:53;;;;;;;6.38;3.58;;;;;;;;;;5028994;28;20056;-60
2022/09/09 00:22:25;;;;;;;4.18;3.63;;;;;;;;;;5021538;28;20053;-60
2022/09/09 00:24:54;;;;;;;8.63;4.28;;;;;;;;;;5028000;28;20068;-60
2022/09/09 00:27:32;;;;;;;4.55;3.38;;;;;;;;;;5029121;28;20032;-59
2022/09/09 00:30:19;;;;;;;4.57;3.83;;;;;;;;;;5028818;28;20934;-60
2022/09/09 00:32:45;;;;;;;5.32;3.90;;;;;;;;;;5027766;28;20033;-60
2022/09/09 00:35:17;;;;;;;6.07;4.68;;;;;;;;;;5029300;28;20029;-60
2022/09/09 00:37:45;;;;;;;4.28;3.85;;;;;;;;;;5027213;28;20033;-60
2022/09/09 00:40:29;;;;;;;4.25;3.85;;;;;;;;;;5032926;28;20444;-60
2022/09/09 00:43:01;;;;;;;5.68;4.43;;;;;;;;;;5032640;28;20499;-60
2022/09/09 00:45:46;;;;;;;5.70;4.10;;;;;;;;;;5027778;28;20116;-60
2022/09/09 00:48:12;;;;;;;6.53;4.60;;;;;;;;;;5030583;28;20040;-60
2022/09/09 00:50:55;;;;;;;5.15;4.03;;;;;;;;;;5031904;28;20030;-60
2022/09/09 00:53:27;;;;;;;5.43;4.33;;;;;;;;;;5030049;28;20064;-60
2022/09/09 00:56:02;;;;;;;4.50;4.00;;;;;;;;;;5031432;28;20034;-61
2022/09/09 00:58:28;;;;;;;4.90;4.30;;;;;;;;;;5028223;28;20496;-60
2022/09/09 01:01:03;;;;;;;5.85;4.40;;;;;;;;;;5030316;28;20029;-60
2022/09/09 01:03:30;;;;;;;6.70;4.88;;;;;;;;;;5032760;28;20096;-60
2022/09/09 01:06:11;;;;;;;4.90;4.40;;;;;;;;;;5032879;28;20036;-60
2022/09/09 01:08:38;;;;;;;7.88;4.70;;;;;;;;;;5015527;28;20519;-60
2022/09/09 01:11:04;;;;;;;6.45;4.70;;;;;;;;;;5030950;28;20480;-60
2022/09/09 01:13:33;;;;;;;4.80;4.18;;;;;;;;;;5030969;28;20448;-60
2022/09/09 01:15:59;;;;;;;6.00;5.05;;;;;;;;;;5028517;28;20026;-60
2022/09/09 01:18:28;;;;;;;5.20;4.68;;;;;;;;;;5032395;28;20072;-60
2022/09/09 01:20:55;;;;;;;7.28;5.03;;;;;;;;;;5031712;28;20042;-60
2022/09/09 01:23:36;;;;;;;6.18;5.35;;;;;;;;;;5025424;28;20038;-60
2022/09/09 01:26:02;;;;;;;6.40;5.40;;;;;;;;;;5033458;28;20068;-60
2022/09/09 01:28:29;;;;;;;6.15;4.80;;;;;;;;;;5032176;28;20077;-60
2022/09/09 01:30:55;;;;;;;7.65;4.82;;;;;;;;;;5031160;28;20034;-60
2022/09/09 01:33:21;;;;;;;6.97;5.70;;;;;;;;;;5030727;28;20083;-60
2022/09/09 01:35:50;;;;;;;6.13;5.07;;;;;;;;;;5031744;28;20057;-60
2022/09/09 01:38:17;;;;;;;8.65;5.82;;;;;;;;;;5031627;28;20033;-60
2022/09/09 01:40:43;;;;;;;8.95;5.65;;;;;;;;;;5028782;28;20029;-60
2022/09/09 01:43:09;;;;;;;6.60;5.43;;;;;;;;;;5022025;28;20025;-60
2022/09/09 01:45:35;;;;;;;7.18;5.75;;;;;;;;;;5031451;28;20053;-60
2022/09/09 01:48:02;;;;;;;8.18;5.82;;;;;;;;;;5031881;28;20123;-60
2022/09/09 01:50:29;;;;;;;6.40;5.00;;;;;;;;;;5028682;28;20025;-60
2022/09/09 01:52:58;;;;;;;8.98;6.43;;;;;;;;;;5030570;28;20036;-60
2022/09/09 01:55:30;;;;;;;6.63;5.75;;;;;;;;;;5029088;28;20025;-60
2022/09/09 01:58:05;;;;;;;8.82;5.55;;;;;;;;;;5030457;28;20028;-60
2022/09/09 02:00:33;;;;;;;6.95;5.63;;;;;;;;;;5031148;28;20065;-62
2022/09/09 02:02:59;;;;;;;8.52;6.68;;;;;;;;;;5028173;28;20033;-60
2022/09/09 02:05:36;;;;;;;7.22;6.45;;;;;;;;;;5029599;28;20075;-60
2022/09/09 02:08:14;;;;;;;13.75;6.93;;;;;;;;;;5026850;28;20029;-60
2022/09/09 02:10:47;;;;;;;6.85;5.03;;;;;;;;;;5022757;28;20141;-60
2022/09/09 02:13:14;;;;;;;7.65;5.43;;;;;;;;;;5028356;28;20037;-60
2022/09/09 02:15:45;;;;;;;9.40;5.88;;;;;;;;;;5027299;28;20029;-60
2022/09/09 02:18:13;;;;;;;8.10;5.47;;;;;;;;;;5031526;28;20535;-60
2022/09/09 02:20:39;;;;;;;6.85;5.78;;;;;;;;;;5030319;28;20087;-60
2022/09/09 02:23:07;;;;;;;7.60;6.00;;;;;;;;;;5028789;28;20033;-60
2022/09/09 02:25:34;;;;;;;9.65;5.93;;;;;;;;;;5030836;28;20036;-59
2022/09/09 02:28:02;;;;;;;7.85;6.00;;;;;;;;;;5030538;28;20362;-60
2022/09/09 02:30:29;;;;;;;7.03;5.72;;;;;;;;;;5021315;28;20388;-60
2022/09/09 02:32:57;;;;;;;8.32;6.25;;;;;;;;;;5030513;28;20059;-60
2022/09/09 02:35:24;;;;;;;7.82;6.18;;;;;;;;;;5030257;28;20061;-60
2022/09/09 02:37:52;;;;;;;7.18;5.57;;;;;;;;;;5027085;28;20111;-60
2022/09/09 02:40:18;;;;;;;8.13;6.18;;;;;;;;;;5029384;28;20033;-60
2022/09/09 02:42:45;;;;;;;8.07;6.07;;;;;;;;;;5031935;28;20029;-60
2022/09/09 02:45:15;;;;;;;8.65;5.78;;;;;;;;;;5027909;28;20057;-60
2022/09/09 02:47:53;;;;;;;7.75;6.35;;;;;;;;;;5031280;28;20386;-60
2022/09/09 02:50:22;;;;;;;8.93;6.55;;;;;;;;;;5029963;28;20437;-60
2022/09/09 02:53:07;;;;;;;9.32;7.28;;;;;;;;;;5025339;28;20061;-60
2022/09/09 02:55:42;;;;;;;7.20;5.97;;;;;;;;;;5028651;28;20373;-60
2022/09/09 02:58:11;;;;;;;8.23;6.22;;;;;;;;;;5028986;28;20025;-60
2022/09/09 03:00:37;;;;;;;8.35;5.93;;;;;;;;;;5030626;28;20471;-60
2022/09/09 03:03:06;;;;;;;8.20;6.93;;;;;;;;;;5028952;28;20014;-60
2022/09/09 03:05:33;;;;;;;7.78;6.25;;;;;;;;;;5030450;28;20083;-60
2022/09/09 03:07:59;;;;;;;9.90;6.38;;;;;;;;;;5027920;28;20100;-60
2022/09/09 03:10:25;;;;;;;7.53;5.90;;;;;;;;;;5024561;28;20026;-60
2022/09/09 03:12:51;;;;;;;7.10;5.43;;;;;;;;;;5026905;28;20044;-60
2022/09/09 03:15:17;;;;;;;7.80;5.30;;;;;;;;;;5030786;28;20021;-60
2022/09/09 03:17:43;;;;;;;7.90;5.35;;;;;;;;;;5030745;28;20033;-60
2022/09/09 03:20:09;;;;;;;7.53;5.15;;;;;;;;;;5029877;28;20067;-60
2022/09/09 03:22:35;;;;;;;6.93;5.70;;;;;;;;;;5030289;28;20120;-60
2022/09/09 03:25:02;;;;;;;6.63;5.45;;;;;;;;;;5030756;28;20103;-60
2022/09/09 03:27:28;;;;;;;8.50;6.10;;;;;;;;;;5028247;28;20087;-60
2022/09/09 03:29:55;;;;;;;7.63;5.72;;;;;;;;;;5028446;28;20075;-60
2022/09/09 03:32:22;;;;;;;9.70;5.72;;;;;;;;;;5029718;28;20108;-60
2022/09/09 03:34:49;;;;;;;5.85;5.03;;;;;;;;;;5030766;28;20021;-60
2022/09/09 03:37:17;;;;;;;7.95;6.00;;;;;;;;;;5027485;28;20034;-60
2022/09/09 03:39:43;;;;;;;9.75;5.78;;;;;;;;;;5021798;28;20029;-60
2022/09/09 03:42:09;;;;;;;6.90;5.82;;;;;;;;;;5029386;28;20036;-61
2022/09/09 03:44:35;;;;;;;8.27;5.68;;;;;;;;;;5029880;28;20041;-61
2022/09/09 03:47:01;;;;;;;7.63;6.00;;;;;;;;;;5029357;28;20499;-60
2022/09/09 03:49:28;;;;;;;9.35;5.22;;;;;;;;;;5026183;28;20026;-60
2022/09/09 03:51:54;;;;;;;10.80;5.65;;;;;;;;;;5028004;28;20520;-60
2022/09/09 03:54:20;;;;;;;6.45;5.30;;;;;;;;;;5028671;28;20128;-60
2022/09/09 03:56:46;;;;;;;6.35;5.13;;;;;;;;;;5030170;28;20021;-60
2022/09/09 03:59:14;;;;;;;8.60;6.15;;;;;;;;;;5028934;28;20038;-60
2022/09/09 04:01:40;;;;;;;7.35;5.97;;;;;;;;;;5026138;28;20036;-60
2022/09/09 04:04:06;;;;;;;9.25;5.55;;;;;;;;;;5027809;28;20033;-59
2022/09/09 04:06:32;;;;;;;7.60;5.47;;;;;;;;;;5029335;28;20033;-60
2022/09/09 04:08:58;;;;;;;9.20;5.68;;;;;;;;;;5027668;28;20026;-60
2022/09/09 04:11:24;;;;;;;8.60;5.22;;;;;;;;;;5027278;28;20476;-60
2022/09/09 04:13:50;;;;;;;6.68;5.40;;;;;;;;;;5029633;28;20052;-60
2022/09/09 04:16:16;;;;;;;6.65;4.85;;;;;;;;;;5027330;28;20665;-60
2022/09/09 04:18:42;;;;;;;7.88;5.38;;;;;;;;;;5032429;28;20072;-60
2022/09/09 04:21:09;;;;;;;9.70;5.65;;;;;;;;;;5031896;28;20420;-60
2022/09/09 04:23:35;;;;;;;7.65;5.13;;;;;;;;;;5032225;28;20064;-60
2022/09/09 04:26:02;;;;;;;8.80;5.18;;;;;;;;;;5029594;28;20057;-60
2022/09/09 04:28:30;;;;;;;8.10;5.03;;;;;;;;;;5032255;28;20026;-60
2022/09/09 04:30:59;;;;;;;6.40;4.97;;;;;;;;;;5032312;28;20013;-60
2022/09/09 04:33:26;;;;;;;5.85;4.82;;;;;;;;;;5028521;28;20037;-60
2022/09/09 04:35:54;;;;;;;7.72;4.55;;;;;;;;;;5033104;28;20034;-60
2022/09/09 04:38:22;;;;;;;6.15;4.65;;;;;;;;;;5030120;28;20022;-60
2022/09/09 04:40:49;;;;;;;5.97;4.93;;;;;;;;;;5023016;28;20029;-60
2022/09/09 04:43:15;;;;;;;7.75;5.15;;;;;;;;;;5028876;28;20469;-60
2022/09/09 04:45:42;;;;;;;8.43;4.55;;;;;;;;;;5028955;28;20021;-60
2022/09/09 04:48:09;;;;;;;6.65;5.18;;;;;;;;;;5032960;28;20029;-60
2022/09/09 04:50:35;;;;;;;8.02;5.00;;;;;;;;;;5030057;28;20423;-60
2022/09/09 04:53:07;;;;;;;5.38;4.32;;;;;;;;;;5030914;28;20049;-60
2022/09/09 04:55:34;;;;;;;5.72;4.47;;;;;;;;;;5032156;28;20030;-60
2022/09/09 04:58:08;;;;;;;6.63;4.22;;;;;;;;;;5009179;28;20021;-60
2022/09/09 05:00:35;;;;;;;;;;;;;;;;;;5030129;28;20124;-60
2022/09/09 05:03:04;;;;;;;6.22;4.38;;;;;;;;;;5024059;28;19909;-60
2022/09/09 05:05:30;;;;;;;9.15;4.70;;;;;;;;;;5032595;28;20067;-60
2022/09/09 05:08:01;;;;;;;6.13;4.43;;;;;;;;;;5014248;28;20504;-60
2022/09/09 05:10:27;;;;;;;6.43;4.40;;;;;;;;;;5028011;28;20133;-60
2022/09/09 05:12:54;;;;;;;7.72;4.90;;;;;;;;;;5030489;28;20369;-60
2022/09/09 05:15:21;;;;;;;7.20;4.72;;;;;;;;;;5029517;28;20040;-60
2022/09/09 05:17:47;;;;;;;6.82;4.63;;;;;;;;;;5022346;28;20046;-60
2022/09/09 05:20:13;;;;;;;11.43;4.90;;;;;;;;;;5031604;28;20886;-60
2022/09/09 05:22:40;;;;;;;7.78;4.63;;;;;;;;;;5029499;28;20028;-59
2022/09/09 05:25:06;;;;;;;6.32;5.25;;;;;;;;;;5028526;28;20506;-60
2022/09/09 05:27:34;;;;;;;6.53;4.88;;;;;;;;;;5028466;28;20086;-60
2022/09/09 05:30:00;;;;;;;7.13;5.18;;;;;;;;;;5025121;28;20539;-61
2022/09/09 05:32:26;;;;;;;6.78;5.03;;;;;;;;;;5031117;28;20033;-61
2022/09/09 05:34:52;;;;;;;9.73;4.85;;;;;;;;;;5032143;28;20480;-60
2022/09/09 05:37:18;;;;;;;7.95;5.32;;;;;;;;;;5022681;28;20021;-61
2022/09/09 05:39:44;;;;;;;8.25;4.78;;;;;;;;;;5031516;28;20022;-61
2022/09/09 05:42:10;;;;;;;8.20;4.88;;;;;;;;;;5031078;28;20100;-60
2022/09/09 05:44:37;;;;;;;8.75;5.43;;;;;;;;;;5032711;28;20033;-60
2022/09/09 05:47:03;;;;;;;6.80;4.53;;;;;;;;;;5027501;28;20420;-60
2022/09/09 05:49:29;;;;;;;11.32;4.47;;;;;;;;;;5023679;28;20485;-61
2022/09/09 05:51:55;;;;;;;8.40;4.70;;;;;;;;;;5029605;28;20025;-61
2022/09/09 05:54:21;;;;;;;7.43;4.57;;;;;;;;;;5032206;28;20026;-61
2022/09/09 05:56:49;;;;;;;8.18;4.55;;;;;;;;;;5027867;28;20036;-61
2022/09/09 05:59:16;;;;;;;7.40;4.72;;;;;;;;;;5028215;28;20381;-61
2022/09/09 06:01:42;;;;;;;5.43;3.80;;;;;;;;;;5013504;28;20025;-64
2022/09/09 06:04:08;;;;;;;5.43;4.07;;;;;;;;;;5031529;28;20036;-60
2022/09/09 06:06:39;;;;;;;7.78;4.78;;;;;;;;;;5031360;28;20116;-60
2022/09/09 06:09:09;;;;;;;7.95;4.40;;;;;;;;;;5030325;28;20480;-61
2022/09/09 06:11:35;;;;;;;6.25;4.40;;;;;;;;;;5029972;28;20022;-61
2022/09/09 06:14:01;;;;;;;8.02;4.22;;;;;;;;;;5032734;28;20033;-60
2022/09/09 06:16:28;;;;;;;6.28;4.20;;;;;;;;;;5030113;28;20034;-60
2022/09/09 06:18:56;;;;;;;7.05;3.83;;;;;;;;;;5031591;28;20068;-61
2022/09/09 06:21:23;;;;;;;4.80;3.35;;;;;;;;;;5030655;28;20026;-61
2022/09/09 06:23:51;;;;;;;4.53;3.25;;;;;;;;;;5031464;28;20033;-60
2022/09/09 06:26:22;;;;;;;5.53;3.00;;;;;;;;;;5030425;28;20108;-61
2022/09/09 06:28:49;;;;;;;8.68;3.40;;;;;;;;;;5028309;28;20065;-61
2022/09/09 06:31:17;;;;;;;8.88;3.47;;;;;;;;;;5027742;28;20034;-61
2022/09/09 06:33:44;;;;;;;6.78;3.60;;;;;;;;;;5029862;28;20042;-61
2022/09/09 06:36:14;;;;;;;4.85;3.13;;;;;;;;;;5028758;28;20617;-60
2022/09/09 06:38:40;;;;;;;4.95;2.95;;;;;;;;;;5026642;28;20511;-61
2022/09/09 06:41:07;;;;;;;8.15;2.92;;;;;;;;;;5029284;28;20061;-61
2022/09/09 06:43:34;;;;;;;4.28;3.00;;;;;;;;;;5029722;28;20036;-60
2022/09/09 06:46:02;;;;;;;5.50;2.83;;;;;;;;;;5030225;28;20021;-60
2022/09/09 06:48:28;;;;;;;9.32;2.70;;;;;;;;;;5025077;28;20105;-59
2022/09/09 06:51:07;;;;;;;3.45;2.78;;;;;;;;;;5030080;28;20496;-60
2022/09/09 06:53:33;;;;;;;4.50;2.25;;;;;;;;;;5026496;28;20033;-60
2022/09/09 06:56:03;;;;;;;4.47;2.13;;;;;;;;;;5029734;28;20030;-60
2022/09/09 06:58:29;;;;;;;3.00;2.30;;;;;;;;;;5030914;28;20051;-60
2022/09/09 07:01:08;;;;;;;3.97;2.13;;;;;;;;;;5027616;28;20116;-60
2022/09/09 07:03:34;;;;;;;6.70;2.35;;;;;;;;;;5030874;28;20033;-60
2022/09/09 07:06:00;;;;;;;5.32;2.17;;;;;;;;;;5030050;28;20030;-60
2022/09/09 07:08:27;;;;;;;5.05;2.40;;;;;;;;;;5030830;28;20030;-60
2022/09/09 07:10:58;;;;;;;4.03;2.38;;;;;;;;;;5028374;28;20502;-60
2022/09/09 07:13:25;;;;;;;7.38;2.05;;;;;;;;;;5031294;28;20515;-60
2022/09/09 07:15:51;;;;;;;4.47;1.88;;;;;;;;;;5027254;28;20040;-60
2022/09/09 07:18:17;;;;;;;4.82;1.98;;;;;;;;;;5031030;28;20072;-60
2022/09/09 07:20:43;;;;;;;4.13;1.65;;;;;;;;;;5026897;28;20029;-60
2022/09/09 07:23:09;;;;;;;5.70;1.70;;;;;;;;;;5026110;28;20029;-60
2022/09/09 07:25:36;;;;;;;5.13;1.70;;;;;;;;;;5028151;28;20025;-60
2022/09/09 07:28:03;;;;;;;6.88;2.08;;;;;;;;;;5019127;28;20022;-60
2022/09/09 07:30:29;;;;;;;3.42;1.42;;;;;;;;;;5021011;28;20017;-60
2022/09/09 07:32:56;;;;;;;4.07;1.55;;;;;;;;;;5025994;28;20551;-60
2022/09/09 07:35:22;;;;;;;2.78;1.40;;;;;;;;;;5026627;28;20480;-60
2022/09/09 07:37:48;;;;;;;2.63;1.45;;;;;;;;;;5030186;28;20032;-60
2022/09/09 07:40:14;;;;;;;5.50;1.70;;;;;;;;;;5028713;28;20075;-60
2022/09/09 07:42:40;;;;;;;3.95;1.50;;;;;;;;;;5030290;28;20029;-60
2022/09/09 07:45:06;;;;;;;2.78;1.55;;;;;;;;;;5029131;28;20032;-60
2022/09/09 07:47:33;;;;;;;2.85;1.67;;;;;;;;;;5029564;28;20484;-60
2022/09/09 07:49:59;;;;;;;3.05;1.70;;;;;;;;;;5029445;28;20045;-61
2022/09/09 07:52:25;;;;;;;4.88;2.15;;;;;;;;;;5030083;28;20029;-60
2022/09/09 07:54:52;;;;;;;3.25;1.40;;;;;;;;;;5028840;28;20041;-60
2022/09/09 07:57:18;;;;;;;3.10;1.63;;;;;;;;;;5023362;28;20549;-60
2022/09/09 07:59:44;;;;;;;3.13;1.42;;;;;;;;;;5028633;28;20470;-61
2022/09/09 08:02:10;;;;;;;6.00;1.60;;;;;;;;;;5030931;28;20022;-60
2022/09/09 08:04:36;;;;;;;10.18;1.83;;;;;;;;;;5030165;28;20037;-60
2022/09/09 08:07:03;;;;;;;4.25;1.63;;;;;;;;;;5030905;28;20103;-60
2022/09/09 08:09:29;;;;;;;3.38;1.70;;;;;;;;;;5029164;28;20048;-61
2022/09/09 08:11:59;;;;;;;9.07;1.40;;;;;;;;;;5029569;28;20029;-60
2022/09/09 08:14:26;;;;;;;5.25;1.40;;;;;;;;;;5026276;28;20045;-60
2022/09/09 08:16:53;;;;;;;4.55;1.25;;;;;;;;;;5021941;28;20029;-60
2022/09/09 08:19:19;;;;;;;4.10;1.33;;;;;;;;;;5029122;28;20048;-61
2022/09/09 08:21:45;;;;;;;10.13;2.28;;;;;;;;;;5026319;28;20037;-62
2022/09/09 08:24:12;;;;;;;4.53;1.27;;;;;;;;;;5029648;28;20520;-61
2022/09/09 08:26:39;;;;;;;2.35;1.10;;;;;;;;;;5027641;28;20385;-61
2022/09/09 08:29:06;;;;;;;3.53;1.17;;;;;;;;;;5029644;28;20444;-60
2022/09/09 08:31:33;;;;;;;3.65;0.90;;;;;;;;;;5020177;28;20546;-61
2022/09/09 08:33:59;;;;;;;2.95;1.58;;;;;;;;;;5010613;28;20076;-60
2022/09/09 08:36:26;;;;;;;2.70;1.15;;;;;;;;;;5006920;28;20092;-61
2022/09/09 08:38:54;;;;;;;5.95;1.40;;;;;;;;;;5028937;28;20029;-61
2022/09/09 08:41:31;;;;;;;3.20;1.17;;;;;;;;;;5028478;28;20120;-61
2022/09/09 08:44:03;;;;;;;4.50;1.30;;;;;;;;;;5022473;28;20036;-60
2022/09/09 08:46:56;;;;;;;2.83;0.90;;;;;;;;;;5025772;28;20500;-61
2022/09/09 08:49:31;;;;;;;2.40;1.02;;;;;;;;;;5014767;28;20351;-61
2022/09/09 08:51:58;;;;;;;4.72;1.40;;;;;;;;;;5028563;28;20021;-61
2022/09/09 08:54:24;;;;;;;3.38;1.08;;;;;;;;;;5028661;28;20152;-61
2022/09/09 08:56:51;;;;;;;2.67;1.10;;;;;;;;;;5029455;28;20033;-61
2022/09/09 08:59:19;;;;;;;3.22;1.23;;;;;;;;;;5025182;28;20029;-60
2022/09/09 09:01:54;;;;;;;4.72;1.40;;;;;;;;;;5031460;28;20041;-61
2022/09/09 09:04:30;;;;;;;2.17;1.02;;;;;;;;;;5031706;28;20036;-61
2022/09/09 09:07:09;;;;;;;3.85;1.50;;;;;;;;;;5028438;28;20078;-60
2022/09/09 09:09:58;;;;;;;4.55;1.15;;;;;;;;;;5033694;28;20018;-61
2022/09/09 09:12:26;;;;;;;1.73;1.00;;;;;;;;;;5030553;28;20033;-60
2022/09/09 09:14:51;;;;;;;3.97;1.25;;;;;;;;;;5025122;28;20532;-61
2022/09/09 09:17:19;;;;;;;4.45;1.15;;;;;;;;;;5032730;28;20033;-61
2022/09/09 09:19:46;;;;;;;3.10;1.20;;;;;;;;;;5033069;28;20476;-61
2022/09/09 09:22:15;;;;;;;2.85;1.00;;;;;;;;;;5033364;28;20025;-62
2022/09/09 09:24:52;;;;;;;3.08;1.13;;;;;;;;;;5025669;28;20489;-61
2022/09/09 09:27:38;;;;;;;4.78;0.88;;;;;;;;;;5033307;28;20018;-61
2022/09/09 09:30:15;;;;;;;2.45;0.80;;;;;;;;;;4995270;28;20503;-61
2022/09/09 09:32:43;;;;;;;6.25;1.00;;;;;;;;;;5032838;28;20057;-61
2022/09/09 09:35:13;;;;;;;3.60;1.00;;;;;;;;;;5031878;28;20087;-61
2022/09/09 09:37:41;;;;;;;5.05;1.02;;;;;;;;;;5032811;28;20036;-61
2022/09/09 09:40:12;;;;;;;1.77;1.00;;;;;;;;;;5032186;28;20477;-61
2022/09/09 09:42:39;;;;;;;2.05;1.00;;;;;;;;;;5030753;28;20429;-61
2022/09/09 09:45:10;;;;;;;5.25;1.02;;;;;;;;;;5032407;28;20029;-62
2022/09/09 09:47:36;;;;;;;3.83;1.23;;;;;;;;;;5030813;28;20025;-61
2022/09/09 09:50:02;;;;;;;4.82;1.13;;;;;;;;;;5030002;28;20041;-61
2022/09/09 09:52:29;;;;;;;3.17;0.90;;;;;;;;;;5031597;28;20071;-61
2022/09/09 09:54:57;;;;;;;6.85;1.10;;;;;;;;;;5020789;28;20036;-61
2022/09/09 09:57:32;;;;;;;5.65;1.17;;;;;;;;;;5031179;28;20460;-61
2022/09/09 10:00:25;;;;;;;5.90;1.25;;;;;;;;;;5032355;28;20021;-61
2022/09/09 10:02:52;;;;;;;4.60;0.80;;;;;;;;;;5025988;28;20481;-61
2022/09/09 10:05:31;;;;;;;1.25;0.60;;;;;;;;;;5030879;28;21174;-62
2022/09/09 10:08:02;;;;;;;3.08;0.82;;;;;;;;;;5029985;28;20064;-61
2022/09/09 10:10:35;;;;;;;4.80;0.80;;;;;;;;;;5030096;28;20048;-61
2022/09/09 10:13:23;;;;;;;4.45;0.88;;;;;;;;;;5029425;28;20110;-61
2022/09/09 10:15:56;;;;;;;2.63;0.73;;;;;;;;;;5028362;28;20039;-61
2022/09/09 10:18:22;;;;;;;5.07;1.05;;;;;;;;;;5030593;28;20497;-62
2022/09/09 10:21:00;;;;;;;1.85;0.80;;;;;;;;;;5031304;28;20037;-61
2022/09/09 10:23:29;;;;;;;4.07;0.77;;;;;;;;;;5026241;28;20017;-61
2022/09/09 10:26:25;;;;;;;7.15;0.90;;;;;;;;;;5031532;28;20085;-61
2022/09/09 10:29:03;;;;;;;3.30;0.98;;;;;;;;;;5029455;28;20120;-61
2022/09/09 10:31:45;;;;;;;3.20;0.70;;;;;;;;;;5031492;28;20059;-62
2022/09/09 10:34:31;;;;;;;2.40;0.80;;;;;;;;;;5027067;28;20028;-62
2022/09/09 10:36:58;;;;;;;4.32;1.13;;;;;;;;;;5016522;28;20109;-62
2022/09/09 10:39:34;;;;;;;7.90;1.05;;;;;;;;;;5030616;28;20043;-62
2022/09/09 10:42:09;;;;;;;1.45;0.70;;;;;;;;;;5023763;28;20022;-61
2022/09/09 10:44:35;;;;;;;3.20;1.05;;;;;;;;;;5024503;28;20043;-60
2022/09/09 10:47:25;;;;;;;4.43;0.82;;;;;;;;;;5024654;28;20332;-63
2022/09/09 10:50:15;;;;;;;3.88;1.02;;;;;;;;;;5018890;28;20026;-66
2022/09/09 10:53:00;;;;;;;4.00;0.90;;;;;;;;;;5027800;28;20028;-66
2022/09/09 10:55:28;;;;;;;2.80;1.05;;;;;;;;;;5020918;28;20026;-68
2022/09/09 10:57:59;;;;;;;2.67;0.75;;;;;;;;;;5018746;28;20469;-69
2022/09/09 11:00:45;;;;;;;4.78;0.88;;;;;;;;;;5028141;28;20488;-68
2022/09/09 11:03:19;;;;;;;1.73;0.60;;;;;;;;;;5025697;28;20108;-68
2022/09/09 11:05:47;;;;;;;2.97;1.15;;;;;;;;;;5015125;28;20033;-64
2022/09/09 11:08:23;;;;;;;4.15;0.95;;;;;;;;;;5019438;28;22138;-68
2022/09/09 11:10:59;;;;;;;5.60;1.13;;;;;;;;;;5022925;28;20017;-68
2022/09/09 11:13:31;;;;;;;3.60;1.00;;;;;;;;;;5022243;28;20032;-68
2022/09/09 11:16:05;;;;;;;2.60;0.88;;;;;;;;;;5009455;28;20044;-66
2022/09/09 11:18:32;;;;;;;2.45;1.13;;;;;;;;;;5010991;28;20056;-67
2022/09/09 11:21:03;;;;;;;3.97;1.00;;;;;;;;;;5025683;28;20030;-68
2022/09/09 11:23:38;;;;;;;2.58;0.50;;;;;;;;;;5029217;28;20033;-67
2022/09/09 11:26:07;;;;;;;3.03;0.75;;;;;;;;;;5028030;28;20056;-66
2022/09/09 11:28:39;;;;;;;3.90;0.68;;;;;;;;;;5023405;28;20036;-66
2022/09/09 11:31:26;;;;;;;1.85;0.50;;;;;;;;;;5030258;28;20079;-65
2022/09/09 11:33:57;;;;;;;4.80;0.98;;;;;;;;;;5027082;28;20369;-65
2022/09/09 11:36:44;;;;;;;2.85;0.90;;;;;;;;;;5023381;28;20034;-63
2022/09/09 11:39:36;;;;;;;4.10;1.08;;;;;;;;;;5029773;28;20022;-66
2022/09/09 11:42:06;;;;;;;3.75;0.93;;;;;;;;;;5023615;28;20025;-68
2022/09/09 11:44:33;;;;;;;3.25;0.60;;;;;;;;;;5028893;28;20053;-68
2022/09/09 11:46:59;;;;;;;2.17;0.75;;;;;;;;;;5030356;28;20083;-67
2022/09/09 11:49:45;;;;;;;2.10;0.63;;;;;;;;;;5026494;28;20029;-67
2022/09/09 11:52:22;;;;;;;11.80;0.93;;;;;;;;;;5021355;28;20025;-67
2022/09/09 11:54:50;;;;;;;2.78;0.45;;;;;;;;;;5003915;28;20060;-62
2022/09/09 11:57:33;;;;;;;5.88;0.73;;;;;;;;;;5027095;28;20498;-64
2022/09/09 11:59:59;;;;;;;1.27;0.40;;;;;;;;;;5021279;28;20064;-65
2022/09/09 12:02:27;;;;;;;3.90;0.73;;;;;;;;;;5023961;28;20116;-64
2022/09/09 12:05:06;;;;;;;2.33;0.57;;;;;;;;;;5028753;28;20057;-65
2022/09/09 12:07:42;;;;;;;3.35;0.70;;;;;;;;;;5028133;28;20477;-66
2022/09/09 12:10:08;;;;;;;4.88;0.68;;;;;;;;;;5024787;28;20401;-65
2022/09/09 12:12:35;;;;;;;2.60;0.50;;;;;;;;;;5024832;28;20030;-63
2022/09/09 12:15:08;;;;;;;3.25;0.57;;;;;;;;;;5025596;28;21621;-64
2022/09/09 12:17:44;;;;;;;4.57;0.70;;;;;;;;;;5028709;28;20025;-67
2022/09/09 12:20:15;;;;;;;4.43;0.60;;;;;;;;;;5029307;28;20528;-67
2022/09/09 12:22:44;;;;;;;2.95;0.55;;;;;;;;;;5026285;28;20057;-66
2022/09/09 12:25:20;;;;;;;4.35;0.57;;;;;;;;;;5026110;28;20473;-67
2022/09/09 12:28:04;;;;;;;5.45;0.65;;;;;;;;;;5014320;28;20036;-66
2022/09/09 12:30:35;;;;;;;2.38;0.60;;;;;;;;;;5024629;28;20431;-65
2022/09/09 12:33:12;;;;;;;2.60;0.50;;;;;;;;;;5020170;28;20535;-65
2022/09/09 12:35:38;;;;;;;3.30;0.80;;;;;;;;;;5028999;28;20128;-60
2022/09/09 12:38:07;;;;;;;4.45;0.50;;;;;;;;;;5028045;28;20030;-63
2022/09/09 12:40:35;;;;;;;2.45;0.30;;;;;;;;;;5021207;28;20038;-60
2022/09/09 12:43:02;;;;;;;1.77;0.55;;;;;;;;;;5028708;28;20030;-61
2022/09/09 12:45:31;;;;;;;1.55;0.40;;;;;;;;;;5028448;28;20036;-61
2022/09/09 12:48:17;;;;;;;1.85;0.32;;;;;;;;;;5033320;28;20060;-61
2022/09/09 12:50:48;;;;;;;3.85;0.63;;;;;;;;;;5032592;28;20026;-61
2022/09/09 12:53:21;;;;;;;2.45;0.50;;;;;;;;;;5026701;28;20014;-63
2022/09/09 12:55:51;;;;;;;4.65;0.90;;;;;;;;;;5030137;28;20036;-65
2022/09/09 12:58:18;;;;;;;3.28;0.85;;;;;;;;;;5032776;28;20022;-65
2022/09/09 13:00:58;;;;;;;2.30;0.43;;;;;;;;;;5031736;28;20027;-64
2022/09/09 13:03:24;;;;;;;2.40;0.40;;;;;;;;;;5033042;28;20026;-66
2022/09/09 13:05:51;;;;;;;1.30;0.38;;;;;;;;;;5034125;28;20439;-65
2022/09/09 13:08:20;;;;;;;5.80;0.50;;;;;;;;;;5032341;28;20528;-64
2022/09/09 13:10:59;;;;;;;2.03;0.32;;;;;;;;;;5030889;28;20033;-64
2022/09/09 13:13:32;;;;;;;3.53;0.57;;;;;;;;;;5024696;28;20112;-65
2022/09/09 13:15:59;;;;;;;2.83;0.80;;;;;;;;;;5032459;28;20033;-65
2022/09/09 13:18:28;;;;;;;4.25;0.85;;;;;;;;;;5027745;28;20523;-65
2022/09/09 13:20:54;;;;;;;4.20;0.60;;;;;;;;;;5031449;28;20033;-65
2022/09/09 13:23:21;;;;;;;1.20;0.50;;;;;;;;;;5030144;28;20030;-64
2022/09/09 13:25:58;;;;;;;2.20;0.70;;;;;;;;;;5031985;28;20048;-63
2022/09/09 13:28:25;;;;;;;4.60;0.90;;;;;;;;;;5028512;28;20100;-63
2022/09/09 13:31:01;;;;;;;9.05;0.90;;;;;;;;;;5031402;28;20033;-65
2022/09/09 13:33:32;;;;;;;1.70;0.60;;;;;;;;;;5032475;28;20037;-65
2022/09/09 13:36:05;;;;;;;2.58;0.60;;;;;;;;;;5031698;28;20030;-64
2022/09/09 13:38:50;;;;;;;4.10;0.80;;;;;;;;;;5028445;28;20503;-65
2022/09/09 13:41:21;;;;;;;2.17;0.65;;;;;;;;;;5029436;28;20108;-66
2022/09/09 13:43:47;;;;;;;2.80;0.70;;;;;;;;;;5023159;28;20439;-65
2022/09/09 13:46:22;;;;;;;3.50;0.55;;;;;;;;;;5013768;28;20556;-65
2022/09/09 13:48:55;;;;;;;2.58;0.52;;;;;;;;;;5032545;28;20094;-64
2022/09/09 13:51:34;;;;;;;4.75;1.60;;;;;;;;;;5026393;28;20408;-64
2022/09/09 13:54:00;;;;;;;1.98;0.65;;;;;;;;;;5028326;28;20535;-65
2022/09/09 13:56:26;;;;;;;3.90;0.63;;;;;;;;;;5030705;28;20021;-65
2022/09/09 13:58:52;;;;;;;4.55;0.60;;;;;;;;;;5032863;28;20036;-64
2022/09/09 14:01:18;;;;;;;2.40;0.50;;;;;;;;;;5031036;28;20033;-64
2022/09/09 14:03:44;;;;;;;3.08;0.80;;;;;;;;;;5029926;28;20037;-66
2022/09/09 14:06:10;;;;;;;1.65;0.47;;;;;;;;;;5031907;28;20030;-65
2022/09/09 14:08:37;;;;;;;4.60;0.73;;;;;;;;;;5018734;28;20369;-65
2022/09/09 14:11:04;;;;;;;2.72;0.75;;;;;;;;;;5031317;28;20400;-65
2022/09/09 14:13:30;;;;;;;2.05;0.60;;;;;;;;;;5031446;28;20095;-65
2022/09/09 14:15:56;;;;;;;2.67;0.50;;;;;;;;;;5032351;28;20042;-65
2022/09/09 14:18:23;;;;;;;4.07;0.63;;;;;;;;;;5031466;28;20501;-65
2022/09/09 14:20:50;;;;;;;4.78;0.50;;;;;;;;;;5027911;28;20095;-65
2022/09/09 14:23:16;;;;;;;2.15;0.60;;;;;;;;;;5031808;28;20108;-65
2022/09/09 14:25:43;;;;;;;2.38;0.60;;;;;;;;;;5030624;28;20112;-65
2022/09/09 14:28:10;;;;;;;3.17;0.80;;;;;;;;;;5031352;28;20381;-65
2022/09/09 14:30:37;;;;;;;1.80;0.77;;;;;;;;;;5024136;28;20026;-67
2022/09/09 14:33:03;;;;;;;2.88;0.57;;;;;;;;;;5029893;28;20036;-68
2022/09/09 14:35:29;;;;;;;4.15;0.70;;;;;;;;;;5032175;28;20033;-67
2022/09/09 14:37:56;;;;;;;2.25;0.40;;;;;;;;;;5021418;28;20033;-64
2022/09/09 14:40:22;;;;;;;3.35;0.60;;;;;;;;;;5003516;28;20049;-65
2022/09/09 14:42:48;;;;;;;2.80;0.50;;;;;;;;;;5026801;28;20029;-65
2022/09/09 14:45:14;;;;;;;4.03;0.55;;;;;;;;;;5027086;28;20526;-67
2022/09/09 14:47:40;;;;;;;1.90;0.57;;;;;;;;;;5015864;28;20029;-66
2022/09/09 14:50:07;;;;;;;4.80;0.52;;;;;;;;;;5022108;28;20022;-65
2022/09/09 14:52:33;;;;;;;2.10;0.30;;;;;;;;;;5027207;28;20461;-67
2022/09/09 14:54:59;;;;;;;2.85;0.40;;;;;;;;;;5029450;28;20087;-67
2022/09/09 14:57:25;;;;;;;3.55;0.55;;;;;;;;;;5027865;28;20027;-67
2022/09/09 14:59:51;;;;;;;2.85;0.38;;;;;;;;;;5025915;28;20017;-67